Terminal Aerodrome Forecast
Issued by NWS

Home | Current Version | Previous Version | Text Only | Print | Product List | Glossary On
Versions: 1 2 3 4 5 6 7 8 9 10 11 12 13
784
FTUS44 KLIX 120534
TAFMCB
TAF
KMCB 120534Z 1206/1306 23006KT P6SM SKC
     FM121500 28009KT P6SM FEW015
     FM121700 28010KT P6SM BKN035=

USA.gov is the U.S. government's official web portal to all federal, state and local government web resources and services.